Time;durP1;ratioP1;P1;durP2;ratioP2;P2;SDS_P1;SDS_P2;PMS_P1;PMS_P2;Temp;Humidity;BMP_temperature;BMP_pressure;BME280_temperature;BME280_humidity;BME280_pressure;Samples;Min_cycle;Max_cycle;Signal;HPM_P1;HPM_P2
2022/11/04 00:03:53;;;;;;;8.85;7.93;;;;;;;10.61;94.15;98785.44;10455666;28;20045;-69
2022/11/04 00:08:56;;;;;;;8.57;7.70;;;;;;;10.73;93.09;98775.22;10455628;28;20079;-69
2022/11/04 00:13:58;;;;;;;9.05;8.23;;;;;;;10.58;94.56;98780.34;10455407;28;20114;-69
2022/11/04 00:19:00;;;;;;;9.75;8.70;;;;;;;10.51;95.81;98771.09;10456742;28;20091;-69
2022/11/04 00:29:22;;;;;;;11.15;10.05;;;;;;;10.43;95.72;98759.28;10463244;28;20040;-69
2022/11/04 00:34:24;;;;;;;12.93;9.40;;;;;;;10.37;96.90;98755.19;10463563;28;20041;-70
2022/11/04 00:39:25;;;;;;;12.90;10.40;;;;;;;10.33;97.10;98751.03;10462587;28;20068;-69
2022/11/04 00:44:27;;;;;;;10.80;9.68;;;;;;;10.23;97.46;98761.13;10464342;28;20494;-70
2022/11/04 00:49:28;;;;;;;10.70;9.70;;;;;;;10.04;98.89;98757.69;10463501;28;20075;-68
2022/11/04 00:54:30;;;;;;;10.65;9.65;;;;;;;10.10;99.07;98753.00;10461991;28;20052;-68
2022/11/04 00:59:31;;;;;;;11.82;10.82;;;;;;;10.26;98.63;98750.47;10462015;28;20057;-69
2022/11/04 01:04:33;;;;;;;13.20;10.02;;;;;;;10.14;99.03;98747.56;10461365;28;20107;-69
2022/11/04 01:09:34;;;;;;;11.48;10.32;;;;;;;9.95;100.00;98745.03;10463189;28;20037;-70
2022/11/04 01:14:36;;;;;;;14.00;12.75;;;;;;;9.89;100.00;98742.72;10461523;28;20402;-70
2022/11/04 01:19:37;;;;;;;13.55;12.43;;;;;;;9.96;100.00;98741.47;10461086;28;20483;-70
2022/11/04 01:24:39;;;;;;;14.38;13.20;;;;;;;10.00;100.00;98733.38;10462515;28;20037;-70
2022/11/04 01:29:41;;;;;;;15.77;14.57;;;;;;;10.14;100.00;98732.69;10460646;28;20041;-69
2022/11/04 01:34:42;;;;;;;15.18;13.98;;;;;;;10.00;100.00;98724.66;10460398;28;20080;-69
2022/11/04 01:39:44;;;;;;;16.10;14.80;;;;;;;10.21;100.00;98718.31;10460250;28;20051;-69
2022/11/04 01:44:55;;;;;;;17.35;15.70;;;;;;;10.03;100.00;98711.38;10460230;28;20102;-69
2022/11/04 01:50:03;;;;;;;17.05;15.65;;;;;;;10.29;100.00;98703.03;10462025;28;20040;-69
2022/11/04 01:55:12;;;;;;;19.42;17.70;;;;;;;10.40;100.00;98712.97;10460074;28;20048;-69
2022/11/04 02:00:14;;;;;;;19.50;17.67;;;;;;;10.57;99.90;98698.97;10459634;28;20033;-69
2022/11/04 02:05:17;;;;;;;19.52;17.92;;;;;;;10.74;99.17;98700.69;10460204;28;20048;-69
2022/11/04 02:10:21;;;;;;;22.40;20.70;;;;;;;10.69;98.90;98698.31;10460571;28;20049;-69
2022/11/04 02:15:36;;;;;;;23.95;22.15;;;;;;;10.97;97.88;98700.28;10459592;28;20071;-69
2022/11/04 02:20:46;;;;;;;19.60;18.20;;;;;;;10.85;98.55;98714.13;10458922;28;20464;-69
2022/11/04 02:25:57;;;;;;;23.33;21.40;;;;;;;10.69;99.37;98731.63;10458804;28;20045;-69
2022/11/04 02:31:07;;;;;;;25.02;23.02;;;;;;;10.56;100.00;98748.03;10458663;28;20476;-70
2022/11/04 02:36:30;;;;;;;24.70;22.67;;;;;;;10.40;100.00;98739.25;10458802;28;20072;-70
2022/11/04 02:41:40;;;;;;;24.92;22.88;;;;;;;10.66;100.00;98718.66;10458782;28;20120;-70
2022/11/04 02:46:48;;;;;;;23.88;21.98;;;;;;;11.06;98.52;98705.03;10457814;28;20041;-70
2022/11/04 02:52:39;;;;;;;24.33;22.23;;;;;;;10.93;98.89;98725.06;10457844;28;20087;-69
2022/11/04 02:57:43;;;;;;;23.75;21.73;;;;;;;10.97;99.36;98815.97;10323538;28;20141;-69
2022/11/04 03:02:52;;;;;;;25.13;23.23;;;;;;;10.91;99.50;98832.09;10330457;28;20065;-69
2022/11/04 03:07:57;;;;;;;25.02;23.02;;;;;;;10.98;98.29;98822.97;10330639;28;20624;-69
2022/11/04 03:13:05;;;;;;;26.42;24.17;;;;;;;10.92;99.83;98840.81;10330901;28;20073;-69
2022/11/04 03:18:20;;;;;;;25.85;23.63;;;;;;;10.64;100.00;98809.88;10331127;28;20065;-70
2022/11/04 03:23:21;;;;;;;25.38;23.35;;;;;;;10.49;100.00;98819.38;10330158;28;20521;-70
2022/11/04 03:28:50;;;;;;;26.42;24.35;;;;;;;10.70;100.00;98825.31;10330279;28;20516;-70
2022/11/04 03:33:54;;;;;;;26.70;24.27;;;;;;;10.42;100.00;98818.84;10421150;28;20095;-69
2022/11/04 03:38:55;;;;;;;25.08;23.13;;;;;;;10.54;100.00;98827.91;10457906;28;20076;-69
2022/11/04 03:43:57;;;;;;;27.45;25.23;;;;;;;10.12;100.00;98810.69;10457276;28;20501;-70
2022/11/04 03:49:00;;;;;;;27.02;24.98;;;;;;;10.05;100.00;98817.19;10457447;28;20183;-70
2022/11/04 03:54:03;;;;;;;27.88;25.60;;;;;;;10.11;100.00;98817.72;10456364;28;20057;-69
2022/11/04 03:59:42;;;;;;;28.10;25.83;;;;;;;9.84;100.00;98819.91;10458997;28;20040;-69
2022/11/04 04:04:56;;;;;;;27.65;25.48;;;;;;;9.84;100.00;98816.44;10464643;28;20064;-69
2022/11/04 04:15:51;;;;;;;26.02;23.90;;;;;;;10.13;100.00;98808.91;10465512;28;20041;-69
2022/11/04 04:20:58;;;;;;;32.80;29.42;;;;;;;9.86;100.00;98811.94;10464790;28;20462;-69
2022/11/04 04:37:19;;;;;;;35.47;31.85;;;;;;;10.58;100.00;98816.28;10464519;28;20037;-69
2022/11/04 04:47:44;;;;;;;40.88;33.10;;;;;;;11.12;100.00;98832.75;10463078;28;20041;-69
2022/11/04 04:52:49;;;;;;;33.85;30.85;;;;;;;10.90;100.00;98838.28;10463275;28;20498;-69
2022/11/04 04:57:51;;;;;;;34.13;31.15;;;;;;;10.98;100.00;98845.75;10464186;28;20103;-69
2022/11/04 05:02:52;;;;;;;33.65;30.65;;;;;;;10.80;100.00;98842.31;10462495;28;20073;-70
2022/11/04 05:07:54;;;;;;;32.50;29.58;;;;;;;10.71;100.00;98854.13;10463577;28;20410;-69
2022/11/04 05:18:15;;;;;;;35.88;32.85;;;;;;;10.61;100.00;98848.50;10464154;28;20060;-70
2022/11/04 05:23:17;;;;;;;42.35;37.13;;;;;;;10.53;100.00;98849.81;10461416;28;20132;-69
2022/11/04 05:28:18;;;;;;;39.15;35.33;;;;;;;10.40;100.00;98854.84;10463829;28;20064;-69
2022/11/04 05:33:20;;;;;;;37.92;34.08;;;;;;;10.27;100.00;98843.22;10446145;22;20041;-71
2022/11/04 05:38:21;;;;;;;45.97;39.58;;;;;;;10.80;100.00;98860.69;10421631;28;20042;-71
2022/11/04 05:43:23;;;;;;;54.45;39.83;;;;;;;10.42;100.00;98845.13;10403698;28;20045;-71
2022/11/04 05:48:25;;;;;;;59.75;41.40;;;;;;;10.43;100.00;98848.59;10420784;28;20041;-71
2022/11/04 05:53:27;;;;;;;52.03;40.45;;;;;;;10.23;100.00;98841.69;10421397;28;20046;-72
2022/11/04 05:58:33;;;;;;;60.83;44.95;;;;;;;10.27;100.00;98837.97;10420383;28;20493;-72
2022/11/04 06:03:35;;;;;;;63.63;44.00;;;;;;;10.17;100.00;98826.22;10420254;28;20046;-71
2022/11/04 06:08:36;;;;;;;58.42;43.60;;;;;;;10.28;100.00;98840.56;10422328;28;20471;-70
2022/11/04 06:13:45;;;;;;;38.90;34.25;;;;;;;10.44;100.00;98848.50;10403878;28;20117;-71
2022/11/04 06:18:47;;;;;;;37.85;32.53;;;;;;;10.56;100.00;98854.94;10403220;28;20033;-70
2022/11/04 06:23:48;;;;;;;36.10;32.22;;;;;;;10.42;100.00;98857.41;10419921;28;20049;-73
2022/11/04 06:28:50;;;;;;;31.98;28.58;;;;;;;10.35;100.00;98849.81;10418729;28;20045;-72
2022/11/04 06:33:52;;;;;;;25.75;23.05;;;;;;;10.44;100.00;98851.13;10418551;28;20502;-70
2022/11/04 06:38:53;;;;;;;21.35;19.77;;;;;;;10.81;100.00;98852.75;10400128;28;20045;-72
2022/11/04 06:44:03;;;;;;;19.80;18.20;;;;;;;10.59;100.00;98860.03;10418828;28;20038;-73
2022/11/04 06:49:06;;;;;;;18.05;16.55;;;;;;;10.68;100.00;98863.97;10415984;28;20081;-72
2022/11/04 06:54:08;;;;;;;15.93;14.38;;;;;;;10.94;100.00;98858.22;10418414;28;20044;-73
2022/11/04 06:59:18;;;;;;;16.52;15.27;;;;;;;10.76;100.00;98859.19;10399140;28;20466;-71
2022/11/04 07:04:19;;;;;;;17.25;15.57;;;;;;;10.81;100.00;98836.97;10416110;28;20057;-72
2022/11/04 07:09:21;;;;;;;13.68;12.48;;;;;;;11.09;100.00;98835.53;10416580;28;20044;-72
2022/11/04 07:14:23;;;;;;;12.63;11.63;;;;;;;11.17;100.00;98840.41;10416466;28;20045;-73
2022/11/04 07:19:24;;;;;;;11.30;10.45;;;;;;;11.23;100.00;98832.16;10416836;28;20041;-72
2022/11/04 07:24:26;;;;;;;10.98;10.05;;;;;;;11.37;100.00;98840.16;10416644;28;20055;-72
2022/11/04 07:29:27;;;;;;;11.07;9.98;;;;;;;11.44;100.00;98846.81;10416740;28;20517;-73
2022/11/04 07:34:29;;;;;;;9.10;8.40;;;;;;;11.53;100.00;98845.44;10416022;28;20048;-72
2022/11/04 07:39:31;;;;;;;10.18;9.38;;;;;;;11.39;100.00;98848.00;10415858;28;20491;-72
2022/11/04 07:44:32;;;;;;;10.05;9.25;;;;;;;11.45;100.00;98855.53;10415802;28;20049;-72
2022/11/04 07:49:34;;;;;;;8.10;7.40;;;;;;;11.71;100.00;98870.75;10415579;28;20041;-72
2022/11/04 07:54:36;;;;;;;9.00;8.02;;;;;;;11.66;100.00;98885.13;10415679;28;20457;-72
2022/11/04 07:59:37;;;;;;;7.25;6.63;;;;;;;11.69;100.00;98891.06;10415286;28;20041;-72
2022/11/04 08:04:39;;;;;;;8.05;7.35;;;;;;;11.73;100.00;98904.88;10416577;28;20046;-72
2022/11/04 08:09:40;;;;;;;8.85;8.05;;;;;;;11.51;100.00;98887.66;10415895;28;20041;-73
2022/11/04 08:14:42;;;;;;;6.55;6.13;;;;;;;11.52;100.00;98872.72;10415879;28;20107;-72
2022/11/04 08:19:43;;;;;;;7.30;6.70;;;;;;;11.29;100.00;98880.06;10415481;28;20041;-72
2022/11/04 08:24:46;;;;;;;8.48;6.80;;;;;;;11.48;100.00;98893.06;10415262;28;20052;-72
2022/11/04 08:29:47;;;;;;;7.88;7.28;;;;;;;11.27;100.00;98896.84;10414953;28;20041;-72
2022/11/04 08:34:49;;;;;;;8.13;7.47;;;;;;;11.15;100.00;98869.38;10397722;28;20095;-72
2022/11/04 08:39:51;;;;;;;9.00;8.20;;;;;;;11.59;100.00;98874.06;10415325;28;20076;-72
2022/11/04 08:44:52;;;;;;;8.02;7.32;;;;;;;11.47;100.00;98870.31;10423845;28;20068;-73
2022/11/04 08:49:54;;;;;;;9.00;8.30;;;;;;;11.82;100.00;98875.41;10449601;28;20094;-73
2022/11/04 08:54:55;;;;;;;8.10;7.43;;;;;;;12.16;100.00;98881.47;10411460;28;20045;-73
2022/11/04 08:59:58;;;;;;;8.02;7.38;;;;;;;11.93;100.00;98861.72;10426679;28;20040;-73
2022/11/04 09:05:00;;;;;;;9.27;8.52;;;;;;;11.54;100.00;98858.50;10463609;28;20526;-73
2022/11/04 09:10:04;;;;;;;8.45;7.75;;;;;;;11.49;100.00;98852.66;10463294;28;20045;-72
2022/11/04 09:15:06;;;;;;;8.68;7.97;;;;;;;11.51;100.00;98863.09;10451502;28;20099;-72
2022/11/04 09:20:09;;;;;;;9.43;8.52;;;;;;;11.80;100.00;98872.03;10421023;28;20439;-72
2022/11/04 09:25:10;;;;;;;6.97;6.47;;;;;;;11.55;100.00;98860.25;10430596;28;20507;-72
2022/11/04 09:30:12;;;;;;;8.32;7.63;;;;;;;11.21;100.00;98855.09;10455857;28;20048;-72
2022/11/04 09:35:16;;;;;;;7.85;7.25;;;;;;;11.08;100.00;98862.78;10421476;28;20049;-72
2022/11/04 09:40:21;;;;;;;7.38;6.78;;;;;;;11.02;100.00;98866.56;10415311;28;20038;-71
2022/11/04 09:45:27;;;;;;;13.73;7.88;;;;;;;10.97;100.00;98865.09;10420593;28;20045;-72
2022/11/04 09:50:37;;;;;;;9.30;8.40;;;;;;;11.12;100.00;98890.63;10402767;28;20041;-72
2022/11/04 09:55:49;;;;;;;8.65;7.95;;;;;;;11.16;100.00;98902.69;10419899;28;20128;-72
2022/11/04 10:01:11;;;;;;;10.93;10.02;;;;;;;10.97;100.00;98912.41;10402091;28;20123;-73
2022/11/04 10:06:30;;;;;;;9.30;8.50;;;;;;;11.01;100.00;98920.06;10421042;28;20099;-71
2022/11/04 10:12:22;;;;;;;9.10;8.23;;;;;;;11.19;100.00;98920.91;10406547;28;20049;-73
2022/11/04 10:17:36;;;;;;;10.60;8.05;;;;;;;11.15;100.00;98926.41;10353556;28;20487;-73
2022/11/04 10:22:44;;;;;;;8.23;7.32;;;;;;;10.85;100.00;98940.22;10421026;28;20053;-73
2022/11/04 10:27:47;;;;;;;7.65;6.13;;;;;;;10.86;100.00;98934.00;10419551;28;20079;-73
2022/11/04 10:32:58;;;;;;;8.27;5.18;;;;;;;10.74;100.00;98934.63;10418857;28;20121;-73
2022/11/04 10:38:22;;;;;;;6.80;5.03;;;;;;;10.60;100.00;98940.56;10418408;28;20045;-73
2022/11/04 10:43:34;;;;;;;7.72;5.13;;;;;;;10.65;100.00;98942.97;10419423;28;20084;-73
2022/11/04 10:48:49;;;;;;;7.88;6.13;;;;;;;10.58;100.00;98942.41;10416913;28;20048;-73
2022/11/04 10:53:56;;;;;;;7.05;6.32;;;;;;;10.30;100.00;98949.00;10418624;28;20049;-73
2022/11/04 10:59:14;;;;;;;6.93;6.00;;;;;;;10.43;100.00;98959.78;10417627;28;20042;-73
2022/11/04 11:04:35;;;;;;;6.97;5.88;;;;;;;10.32;100.00;98962.09;10417889;28;20069;-73
2022/11/04 11:09:47;;;;;;;21.48;14.93;;;;;;;10.49;100.00;98961.25;10400409;28;20410;-73
2022/11/04 11:14:55;;;;;;;5.57;5.00;;;;;;;10.44;100.00;98958.84;10417081;28;20038;-73
2022/11/04 11:20:01;;;;;;;5.78;5.28;;;;;;;10.29;100.00;98949.94;10417337;28;20068;-73
2022/11/04 11:25:21;;;;;;;8.45;6.22;;;;;;;10.28;100.00;98944.75;10418045;28;20073;-73
2022/11/04 11:30:32;;;;;;;5.45;5.05;;;;;;;10.56;100.00;98941.63;10433971;22;20502;-71
2022/11/04 11:35:41;;;;;;;4.93;4.43;;;;;;;10.41;100.00;98950.28;10460876;28;20052;-71
2022/11/04 11:40:42;;;;;;;5.13;4.63;;;;;;;10.37;100.00;98952.19;10420550;28;20042;-71
2022/11/04 11:46:04;;;;;;;5.60;5.10;;;;;;;10.20;100.00;98945.09;10420310;28;20041;-71
2022/11/04 11:51:06;;;;;;;4.70;4.30;;;;;;;10.41;100.00;98937.16;10420081;28;20095;-70
2022/11/04 11:56:23;;;;;;;5.45;4.95;;;;;;;10.19;100.00;98946.03;10419156;28;20049;-70
2022/11/04 12:01:36;;;;;;;4.40;4.03;;;;;;;10.35;100.00;98952.25;10419222;28;20099;-73
2022/11/04 12:07:03;;;;;;;5.47;4.90;;;;;;;10.21;100.00;98949.41;10419816;28;20064;-71
2022/11/04 12:12:32;;;;;;;5.80;5.30;;;;;;;10.03;100.00;98953.75;10416574;28;20533;-73
2022/11/04 12:17:45;;;;;;;7.18;5.68;;;;;;;10.06;100.00;98944.91;10419632;28;20520;-71
2022/11/04 12:22:49;;;;;;;5.88;5.28;;;;;;;9.98;100.00;98947.88;10423896;28;20097;-72
2022/11/04 12:28:26;;;;;;;7.65;6.97;;;;;;;10.03;100.00;98945.88;10426650;28;20045;-71
2022/11/04 12:33:33;;;;;;;;;;;;;;;9.95;100.00;98950.63;10426568;28;20064;-72
2022/11/04 12:38:58;;;;;;;6.95;6.45;;;;;;;9.92;100.00;98939.44;10427003;28;19929;-72
2022/11/04 12:44:18;;;;;;;6.28;5.78;;;;;;;9.88;100.00;98946.59;10427874;28;20041;-71
2022/11/04 12:49:23;;;;;;;6.68;6.18;;;;;;;9.83;100.00;98932.84;10427736;28;20068;-71
2022/11/04 12:54:24;;;;;;;7.25;6.60;;;;;;;9.76;100.00;98932.25;10425634;28;20080;-71
2022/11/04 13:00:05;;;;;;;7.38;6.80;;;;;;;9.78;100.00;98937.44;10425829;28;20038;-71
2022/11/04 13:05:43;;;;;;;6.85;6.28;;;;;;;9.71;100.00;98920.28;10383739;28;20061;-72
2022/11/04 13:10:54;;;;;;;7.63;7.07;;;;;;;9.77;100.00;98917.38;10381322;28;20125;-70
2022/11/04 13:16:01;;;;;;;8.30;7.53;;;;;;;9.80;100.00;98920.72;10383112;28;20060;-70
2022/11/04 13:21:08;;;;;;;9.20;8.50;;;;;;;9.89;100.00;98926.47;10382004;28;20054;-72
2022/11/04 13:26:14;;;;;;;10.07;9.18;;;;;;;9.78;100.00;98924.31;10383100;28;20061;-72
2022/11/04 13:31:25;;;;;;;9.40;8.70;;;;;;;9.55;100.00;98934.09;10378404;28;20093;-72
2022/11/04 13:36:33;;;;;;;9.18;8.45;;;;;;;9.69;100.00;98936.06;10380609;28;20061;-71
2022/11/04 13:41:56;;;;;;;7.43;6.80;;;;;;;9.70;100.00;98950.06;10420527;28;20095;-72
2022/11/04 13:47:02;;;;;;;7.65;7.05;;;;;;;9.73;100.00;98952.53;10424762;28;20041;-72
2022/11/04 13:52:10;;;;;;;7.38;6.68;;;;;;;9.72;100.00;98964.81;10421884;28;20049;-72
2022/11/04 13:57:19;;;;;;;7.07;6.57;;;;;;;9.68;100.00;98962.41;10423542;28;20037;-72
2022/11/04 14:02:20;;;;;;;7.55;6.97;;;;;;;9.69;100.00;98964.09;10425155;28;20360;-70
2022/11/04 14:07:57;;;;;;;8.85;7.97;;;;;;;9.51;100.00;98974.50;10424827;28;20045;-71
2022/11/04 14:13:33;;;;;;;8.55;7.95;;;;;;;9.23;100.00;98958.28;10425517;28;20073;-70
2022/11/04 14:18:40;;;;;;;;;;;;;;;9.23;100.00;98976.63;10425174;28;20344;-72
2022/11/04 14:23:44;;;;;;;8.35;7.65;;;;;;;9.20;100.00;98972.34;10425245;28;19928;-72
2022/11/04 14:28:49;;;;;;;10.23;9.32;;;;;;;9.29;100.00;98981.59;10422096;28;20553;-72
2022/11/04 14:33:55;;;;;;;8.60;8.00;;;;;;;9.22;100.00;98982.78;10421467;28;20107;-72
2022/11/04 14:39:08;;;;;;;8.05;7.45;;;;;;;9.15;100.00;99003.16;10422185;28;20041;-70
2022/11/04 14:44:22;;;;;;;8.95;8.15;;;;;;;9.25;100.00;98999.25;10420622;28;20068;-71
2022/11/04 14:49:38;;;;;;;7.22;6.57;;;;;;;9.08;100.00;99009.59;10422729;28;20063;-71
2022/11/04 14:54:40;;;;;;;7.65;7.05;;;;;;;9.16;100.00;99025.00;10418376;28;20049;-71
2022/11/04 14:59:42;;;;;;;7.65;6.95;;;;;;;9.07;100.00;99028.84;10415877;28;20044;-70
2022/11/04 15:04:51;;;;;;;9.02;8.32;;;;;;;8.99;100.00;99033.59;10417556;28;20049;-72
2022/11/04 15:09:53;;;;;;;10.48;9.57;;;;;;;8.99;100.00;99042.28;10418459;28;20121;-72
2022/11/04 15:14:56;;;;;;;10.00;9.20;;;;;;;8.93;100.00;99041.69;10421502;28;20073;-73
2022/11/04 15:20:01;;;;;;;9.70;8.90;;;;;;;8.94;100.00;99039.00;10419474;28;20038;-71
2022/11/04 15:25:04;;;;;;;9.82;8.93;;;;;;;8.96;100.00;99047.66;10418979;28;20048;-72
2022/11/04 15:30:17;;;;;;;10.20;9.23;;;;;;;8.95;100.00;99051.19;10416897;28;20053;-72
2022/11/04 15:35:19;;;;;;;9.57;8.88;;;;;;;8.78;100.00;99058.88;10420218;28;20099;-72
2022/11/04 15:40:21;;;;;;;8.38;7.78;;;;;;;8.90;100.00;99055.78;10417337;28;20038;-72
2022/11/04 15:45:36;;;;;;;8.57;7.82;;;;;;;8.84;100.00;99058.63;10416719;28;20046;-72
2022/11/04 15:50:38;;;;;;;9.13;8.35;;;;;;;8.93;100.00;99060.88;10400388;28;20072;-72
2022/11/04 15:55:39;;;;;;;9.35;8.60;;;;;;;8.95;100.00;99061.69;10409178;28;20080;-71
2022/11/04 16:00:50;;;;;;;8.77;8.07;;;;;;;9.04;100.00;99068.31;10430319;28;20049;-71
2022/11/04 16:06:02;;;;;;;8.88;8.00;;;;;;;9.19;100.00;99074.69;10413421;28;20433;-72
2022/11/04 16:11:12;;;;;;;9.25;8.48;;;;;;;9.16;100.00;99086.16;10431184;28;20450;-72
2022/11/04 16:16:23;;;;;;;10.05;9.32;;;;;;;9.03;100.00;99074.44;10433882;28;20103;-72
2022/11/04 16:21:27;;;;;;;12.23;11.13;;;;;;;8.99;100.00;99089.47;10413711;28;20052;-72
2022/11/04 16:26:37;;;;;;;11.75;10.95;;;;;;;9.26;100.00;99077.00;10431402;28;20419;-72
2022/11/04 16:31:39;;;;;;;14.50;13.30;;;;;;;8.90;100.00;99092.47;10397149;28;20050;-72
2022/11/04 16:36:40;;;;;;;14.10;13.10;;;;;;;9.06;100.00;99098.78;10430467;28;20129;-72
2022/11/04 16:41:42;;;;;;;12.38;11.35;;;;;;;8.94;100.00;99111.53;10431789;28;20040;-72
2022/11/04 16:46:44;;;;;;;9.38;8.68;;;;;;;9.10;100.00;99112.63;10429011;28;20045;-72
2022/11/04 16:51:50;;;;;;;8.60;8.07;;;;;;;8.98;100.00;99120.97;10429662;28;20148;-72
2022/11/04 16:56:53;;;;;;;8.65;8.05;;;;;;;9.06;100.00;99132.84;10429091;28;20483;-72
2022/11/04 17:01:55;;;;;;;7.53;6.93;;;;;;;9.20;100.00;99131.44;10429441;28;20049;-72
2022/11/04 17:06:57;;;;;;;8.27;7.68;;;;;;;9.01;100.00;99141.81;10424975;28;20041;-71
2022/11/04 17:11:58;;;;;;;8.13;7.50;;;;;;;9.13;100.00;99133.47;10423962;28;20068;-72
2022/11/04 17:17:00;;;;;;;8.57;7.60;;;;;;;9.06;100.00;99145.13;10405677;28;20049;-71
2022/11/04 17:22:06;;;;;;;9.60;8.38;;;;;;;9.05;100.00;99141.66;10424490;28;20091;-71
2022/11/04 17:27:07;;;;;;;8.23;7.55;;;;;;;9.02;100.00;99144.38;10424011;28;20050;-71
2022/11/04 17:32:09;;;;;;;8.25;7.47;;;;;;;8.99;100.00;99156.78;10459272;22;20465;-70
2022/11/04 17:37:12;;;;;;;9.20;8.40;;;;;;;8.95;100.00;99152.56;10542368;28;20044;-69
2022/11/04 17:47:35;;;;;;;8.20;7.50;;;;;;;9.03;100.00;99167.09;10546123;28;20516;-70
2022/11/04 17:52:37;;;;;;;8.07;7.47;;;;;;;8.97;100.00;99171.69;10526234;28;20077;-69
2022/11/04 17:57:38;;;;;;;10.52;9.63;;;;;;;8.83;100.00;99169.59;10502777;28;20127;-69
2022/11/04 18:02:41;;;;;;;9.93;9.02;;;;;;;8.76;100.00;99162.88;10503014;28;20076;-70
2022/11/04 18:07:43;;;;;;;10.98;9.50;;;;;;;8.82;100.00;99162.66;10501358;28;20080;-69
2022/11/04 18:12:44;;;;;;;10.20;9.30;;;;;;;9.00;100.00;99167.19;10501652;28;20053;-70
2022/11/04 18:17:48;;;;;;;10.15;9.25;;;;;;;8.96;100.00;99168.22;10500377;28;20047;-70
2022/11/04 18:22:50;;;;;;;10.82;9.88;;;;;;;8.96;100.00;99168.22;10484075;28;20044;-70
2022/11/04 18:27:52;;;;;;;10.55;9.75;;;;;;;8.97;100.00;99169.94;10500565;28;20040;-70
2022/11/04 18:32:53;;;;;;;10.43;9.52;;;;;;;8.87;100.00;99171.19;10485340;28;20147;-69
2022/11/04 18:37:55;;;;;;;10.88;9.95;;;;;;;8.86;100.00;99169.50;10541414;28;20043;-69
2022/11/04 18:42:56;;;;;;;11.13;10.23;;;;;;;8.79;100.00;99168.88;10542616;28;20455;-69
2022/11/04 18:47:58;;;;;;;11.82;10.82;;;;;;;8.82;100.00;99158.28;10543232;28;20386;-69
2022/11/04 18:53:00;;;;;;;11.73;10.80;;;;;;;8.84;100.00;99152.97;10520769;28;20041;-69
2022/11/04 18:58:02;;;;;;;10.75;9.95;;;;;;;8.94;100.00;99156.97;10501289;28;20063;-70
2022/11/04 19:03:04;;;;;;;11.32;10.45;;;;;;;9.03;100.00;99161.84;10502328;28;20456;-70
2022/11/04 19:08:06;;;;;;;12.02;10.95;;;;;;;8.81;100.00;99155.72;10500645;28;20052;-69
2022/11/04 19:13:17;;;;;;;12.85;11.75;;;;;;;8.73;100.00;99150.78;10501472;28;20044;-70
2022/11/04 19:18:19;;;;;;;11.85;10.95;;;;;;;8.72;100.00;99162.16;10481602;28;20398;-70
2022/11/04 19:23:20;;;;;;;11.00;10.10;;;;;;;8.83;100.00;99161.75;10499991;28;20050;-71
2022/11/04 19:28:22;;;;;;;10.70;9.80;;;;;;;8.75;100.00;99174.28;10481735;28;20051;-72
2022/11/04 19:33:45;;;;;;;10.70;9.65;;;;;;;8.71;100.00;99172.69;10498428;28;20055;-70
2022/11/04 19:38:50;;;;;;;10.93;10.02;;;;;;;8.91;100.00;99182.44;10499068;28;20463;-70
2022/11/04 19:43:51;;;;;;;11.38;10.27;;;;;;;8.80;100.00;99188.06;10502761;28;20049;-70
2022/11/04 19:48:57;;;;;;;11.52;9.63;;;;;;;8.67;100.00;99195.53;10503300;28;20041;-71
2022/11/04 19:53:58;;;;;;;11.35;10.25;;;;;;;8.74;100.00;99201.41;10500068;28;20098;-70
2022/11/04 19:59:01;;;;;;;11.02;10.02;;;;;;;8.88;100.00;99209.59;10498961;28;20067;-70
2022/11/04 20:04:06;;;;;;;10.60;9.80;;;;;;;8.93;100.00;99212.03;10497524;28;20083;-70
2022/11/04 20:09:11;;;;;;;11.13;10.15;;;;;;;8.95;100.00;99224.19;10498222;28;20060;-72
2022/11/04 20:14:16;;;;;;;11.45;10.32;;;;;;;8.84;100.00;99234.19;10500395;28;20052;-71
2022/11/04 20:19:18;;;;;;;11.50;10.40;;;;;;;8.97;100.00;99229.34;10501260;28;20099;-71
2022/11/04 20:24:24;;;;;;;12.27;10.68;;;;;;;8.92;100.00;99240.03;10482417;28;20502;-71
2022/11/04 20:29:26;;;;;;;11.25;10.35;;;;;;;9.00;100.00;99244.97;10499703;28;20036;-71
2022/11/04 20:34:29;;;;;;;10.60;9.68;;;;;;;8.99;100.00;99249.38;10481496;28;20048;-72
2022/11/04 20:39:33;;;;;;;12.48;11.48;;;;;;;8.86;100.00;99255.13;10481332;28;20109;-71
2022/11/04 20:44:35;;;;;;;12.60;10.52;;;;;;;8.93;100.00;99264.47;10504980;28;20043;-70
2022/11/04 20:49:37;;;;;;;11.38;10.35;;;;;;;8.76;100.00;99267.69;10505802;28;20091;-71
2022/11/04 20:54:38;;;;;;;12.88;10.75;;;;;;;8.76;100.00;99273.78;10488457;28;20051;-71
2022/11/04 20:59:40;;;;;;;11.73;10.80;;;;;;;8.73;100.00;99273.91;10506100;28;20041;-70
2022/11/04 21:04:42;;;;;;;10.85;9.95;;;;;;;8.93;100.00;99286.28;10455631;28;20045;-70
2022/11/04 21:09:43;;;;;;;12.05;11.05;;;;;;;8.80;100.00;99291.09;10474099;28;20044;-71
2022/11/04 21:14:45;;;;;;;11.98;10.75;;;;;;;8.91;100.00;99293.34;10525173;28;20050;-71
2022/11/04 21:19:47;;;;;;;11.52;10.63;;;;;;;8.96;100.00;99301.06;10528815;28;20477;-71
2022/11/04 21:24:49;;;;;;;12.27;11.00;;;;;;;8.88;100.00;99293.47;10529091;28;20044;-71
2022/11/04 21:29:51;;;;;;;11.65;10.65;;;;;;;8.82;100.00;99299.78;10494024;28;20040;-72
2022/11/04 21:34:53;;;;;;;13.25;12.23;;;;;;;8.87;100.00;99310.09;10486097;28;20091;-71
2022/11/04 21:39:55;;;;;;;13.63;12.38;;;;;;;8.90;100.00;99306.50;10502974;28;20086;-71
2022/11/04 21:44:56;;;;;;;15.27;14.02;;;;;;;8.66;100.00;99310.88;10468167;28;20481;-71
2022/11/04 21:49:59;;;;;;;13.68;12.57;;;;;;;8.91;100.00;99305.59;10502422;28;20049;-71
2022/11/04 21:55:01;;;;;;;13.70;12.60;;;;;;;8.81;100.00;99318.19;10506205;28;20110;-72
2022/11/04 22:00:05;;;;;;;15.50;14.00;;;;;;;8.76;100.00;99314.88;10503680;28;20123;-71
2022/11/04 22:05:11;;;;;;;14.25;12.93;;;;;;;8.90;100.00;99315.25;10485453;28;20048;-72
2022/11/04 22:10:12;;;;;;;13.07;11.88;;;;;;;8.85;100.00;99322.38;10503425;28;20131;-71
2022/11/04 22:15:56;;;;;;;14.20;12.80;;;;;;;8.77;100.00;99334.94;10484885;28;20417;-71
2022/11/04 22:20:36;;;;;;;13.95;12.93;;;;;;;8.63;100.00;99339.78;10502018;28;20033;-70
2022/11/04 22:25:38;;;;;;;14.77;13.43;;;;;;;8.72;100.00;99332.47;10502711;28;20494;-70
2022/11/04 22:30:40;;;;;;;14.82;13.63;;;;;;;8.72;100.00;99328.97;10504413;28;20433;-71
2022/11/04 22:35:45;;;;;;;16.50;14.85;;;;;;;8.58;100.00;99338.19;10502684;28;20095;-70
2022/11/04 22:40:56;;;;;;;15.77;14.35;;;;;;;8.47;100.00;99344.72;10484602;28;20501;-71
2022/11/04 22:46:03;;;;;;;15.05;13.68;;;;;;;8.62;100.00;99348.56;10502103;28;20390;-69
2022/11/04 22:51:07;;;;;;;16.98;15.32;;;;;;;8.53;100.00;99342.72;10500985;28;20040;-69
2022/11/04 22:56:11;;;;;;;15.07;13.95;;;;;;;8.61;100.00;99346.84;10501042;28;20091;-69
2022/11/04 23:01:14;;;;;;;16.65;15.18;;;;;;;8.46;100.00;99346.47;10500800;28;20091;-70
2022/11/04 23:06:16;;;;;;;17.23;15.48;;;;;;;8.46;100.00;99343.00;10499646;28;20076;-70
2022/11/04 23:32:52;;;;;;;14.32;13.23;;;;;;;8.59;100.00;99354.78;10485675;22;20056;-72
2022/11/04 23:37:58;;;;;;;17.00;13.32;;;;;;;8.43;100.00;99358.81;10424273;28;20049;-72
2022/11/04 23:43:00;;;;;;;15.07;13.87;;;;;;;8.50;100.00;99371.66;10460346;28;20045;-72
